sensor_id;sensor_type;location;lat;lon;timestamp;temperature;humidity
20041;DHT22;10181;48.072;9.884;2022-08-01T00:00:07;16.60;99.90
20041;DHT22;10181;48.072;9.884;2022-08-01T00:02:33;16.50;99.90
20041;DHT22;10181;48.072;9.884;2022-08-01T00:04:59;16.50;99.90
20041;DHT22;10181;48.072;9.884;2022-08-01T00:07:25;16.50;99.90
20041;DHT22;10181;48.072;9.884;2022-08-01T00:09:51;16.40;99.90
20041;DHT22;10181;48.072;9.884;2022-08-01T00:12:17;16.40;99.90
20041;DHT22;10181;48.072;9.884;2022-08-01T00:14:42;16.30;99.90
20041;DHT22;10181;48.072;9.884;2022-08-01T00:17:08;16.30;99.90
20041;DHT22;10181;48.072;9.884;2022-08-01T00:19:34;16.20;99.90
20041;DHT22;10181;48.072;9.884;2022-08-01T00:22:00;16.20;99.90
20041;DHT22;10181;48.072;9.884;2022-08-01T00:24:27;16.10;99.90
20041;DHT22;10181;48.072;9.884;2022-08-01T00:26:52;16.10;99.90
20041;DHT22;10181;48.072;9.884;2022-08-01T00:29:18;16.00;99.90
20041;DHT22;10181;48.072;9.884;2022-08-01T00:31:44;15.90;99.90
20041;DHT22;10181;48.072;9.884;2022-08-01T00:34:09;15.80;99.90
20041;DHT22;10181;48.072;9.884;2022-08-01T00:36:35;15.70;99.90
20041;DHT22;10181;48.072;9.884;2022-08-01T00:39:00;15.60;99.90
20041;DHT22;10181;48.072;9.884;2022-08-01T00:41:26;15.50;99.90
20041;DHT22;10181;48.072;9.884;2022-08-01T00:43:52;15.50;99.90
20041;DHT22;10181;48.072;9.884;2022-08-01T00:46:17;15.50;99.90
20041;DHT22;10181;48.072;9.884;2022-08-01T00:48:43;15.40;99.90
20041;DHT22;10181;48.072;9.884;2022-08-01T00:51:09;15.40;99.90
20041;DHT22;10181;48.072;9.884;2022-08-01T00:53:35;15.30;99.90
20041;DHT22;10181;48.072;9.884;2022-08-01T00:56:02;15.30;99.90
20041;DHT22;10181;48.072;9.884;2022-08-01T00:58:27;15.30;99.90
20041;DHT22;10181;48.072;9.884;2022-08-01T01:00:55;15.30;99.90
20041;DHT22;10181;48.072;9.884;2022-08-01T01:03:22;15.30;99.90
20041;DHT22;10181;48.072;9.884;2022-08-01T01:05:56;15.30;99.90
20041;DHT22;10181;48.072;9.884;2022-08-01T01:08:32;15.20;99.90
20041;DHT22;10181;48.072;9.884;2022-08-01T01:11:23;15.20;99.90
20041;DHT22;10181;48.072;9.884;2022-08-01T01:13:57;15.10;99.90
20041;DHT22;10181;48.072;9.884;2022-08-01T01:16:24;15.10;99.90
20041;DHT22;10181;48.072;9.884;2022-08-01T01:18:56;15.10;99.90
20041;DHT22;10181;48.072;9.884;2022-08-01T01:24:28;15.10;99.90
20041;DHT22;10181;48.072;9.884;2022-08-01T01:28:02;15.10;99.90
20041;DHT22;10181;48.072;9.884;2022-08-01T01:30:06;14.90;99.90
20041;DHT22;10181;48.072;9.884;2022-08-01T01:32:35;14.90;99.90
20041;DHT22;10181;48.072;9.884;2022-08-01T01:35:08;14.90;99.90
20041;DHT22;10181;48.072;9.884;2022-08-01T01:37:35;14.90;99.90
20041;DHT22;10181;48.072;9.884;2022-08-01T01:40:04;14.90;99.90
20041;DHT22;10181;48.072;9.884;2022-08-01T01:42:32;15.00;99.90
20041;DHT22;10181;48.072;9.884;2022-08-01T01:44:58;15.00;99.90
20041;DHT22;10181;48.072;9.884;2022-08-01T01:47:25;15.00;99.90
20041;DHT22;10181;48.072;9.884;2022-08-01T01:49:54;15.00;99.90
20041;DHT22;10181;48.072;9.884;2022-08-01T01:52:21;14.90;99.90
20041;DHT22;10181;48.072;9.884;2022-08-01T01:54:50;14.90;99.90
20041;DHT22;10181;48.072;9.884;2022-08-01T01:57:17;14.80;99.90
20041;DHT22;10181;48.072;9.884;2022-08-01T01:59:44;14.80;99.90
20041;DHT22;10181;48.072;9.884;2022-08-01T02:02:11;14.80;99.90
20041;DHT22;10181;48.072;9.884;2022-08-01T02:04:41;14.70;99.90
20041;DHT22;10181;48.072;9.884;2022-08-01T02:07:14;14.70;99.90
20041;DHT22;10181;48.072;9.884;2022-08-01T02:09:42;14.80;99.90
20041;DHT22;10181;48.072;9.884;2022-08-01T02:12:10;14.80;99.90
20041;DHT22;10181;48.072;9.884;2022-08-01T02:14:37;14.80;99.90
20041;DHT22;10181;48.072;9.884;2022-08-01T02:17:05;14.70;99.90
20041;DHT22;10181;48.072;9.884;2022-08-01T02:19:32;14.70;99.90
20041;DHT22;10181;48.072;9.884;2022-08-01T02:24:41;14.70;99.90
20041;DHT22;10181;48.072;9.884;2022-08-01T02:27:17;14.70;99.90
20041;DHT22;10181;48.072;9.884;2022-08-01T02:29:59;14.70;99.90
20041;DHT22;10181;48.072;9.884;2022-08-01T02:32:53;14.70;99.90
20041;DHT22;10181;48.072;9.884;2022-08-01T02:35:27;14.60;99.90
20041;DHT22;10181;48.072;9.884;2022-08-01T02:37:54;14.60;99.90
20041;DHT22;10181;48.072;9.884;2022-08-01T02:40:21;14.50;99.90
20041;DHT22;10181;48.072;9.884;2022-08-01T02:42:51;14.50;99.90
20041;DHT22;10181;48.072;9.884;2022-08-01T02:45:19;14.50;99.90
20041;DHT22;10181;48.072;9.884;2022-08-01T02:47:48;14.40;99.90
20041;DHT22;10181;48.072;9.884;2022-08-01T02:50:16;14.40;99.90
20041;DHT22;10181;48.072;9.884;2022-08-01T02:52:48;14.50;99.90
20041;DHT22;10181;48.072;9.884;2022-08-01T02:55:16;14.50;99.90
20041;DHT22;10181;48.072;9.884;2022-08-01T02:57:44;14.50;99.90
20041;DHT22;10181;48.072;9.884;2022-08-01T03:00:11;14.60;99.90
20041;DHT22;10181;48.072;9.884;2022-08-01T03:02:37;14.50;99.90
20041;DHT22;10181;48.072;9.884;2022-08-01T03:05:04;14.50;99.90
20041;DHT22;10181;48.072;9.884;2022-08-01T03:07:30;14.50;99.90
20041;DHT22;10181;48.072;9.884;2022-08-01T03:09:57;14.50;99.90
20041;DHT22;10181;48.072;9.884;2022-08-01T03:12:27;14.50;99.90
20041;DHT22;10181;48.072;9.884;2022-08-01T03:14:56;14.50;99.90
20041;DHT22;10181;48.072;9.884;2022-08-01T03:17:25;14.50;99.90
20041;DHT22;10181;48.072;9.884;2022-08-01T03:19:52;14.50;99.90
20041;DHT22;10181;48.072;9.884;2022-08-01T03:22:21;14.60;99.90
20041;DHT22;10181;48.072;9.884;2022-08-01T03:24:51;14.60;99.90
20041;DHT22;10181;48.072;9.884;2022-08-01T03:27:19;14.60;99.90
20041;DHT22;10181;48.072;9.884;2022-08-01T03:29:47;14.50;99.90
20041;DHT22;10181;48.072;9.884;2022-08-01T03:32:13;14.50;99.90
20041;DHT22;10181;48.072;9.884;2022-08-01T03:34:40;14.50;99.90
20041;DHT22;10181;48.072;9.884;2022-08-01T03:39:52;14.40;99.90
20041;DHT22;10181;48.072;9.884;2022-08-01T03:42:24;14.30;99.90
20041;DHT22;10181;48.072;9.884;2022-08-01T03:44:54;14.20;99.90
20041;DHT22;10181;48.072;9.884;2022-08-01T03:47:25;14.10;99.90
20041;DHT22;10181;48.072;9.884;2022-08-01T03:49:52;14.00;99.90
20041;DHT22;10181;48.072;9.884;2022-08-01T03:52:19;13.90;99.90
20041;DHT22;10181;48.072;9.884;2022-08-01T03:54:47;13.90;99.90
20041;DHT22;10181;48.072;9.884;2022-08-01T03:57:14;13.90;99.90
20041;DHT22;10181;48.072;9.884;2022-08-01T03:59:41;13.80;99.90
20041;DHT22;10181;48.072;9.884;2022-08-01T04:02:07;13.80;99.90
20041;DHT22;10181;48.072;9.884;2022-08-01T04:04:33;13.80;99.90
20041;DHT22;10181;48.072;9.884;2022-08-01T04:06:59;13.80;99.90
20041;DHT22;10181;48.072;9.884;2022-08-01T04:09:30;13.80;99.90
20041;DHT22;10181;48.072;9.884;2022-08-01T04:11:58;13.80;99.90
20041;DHT22;10181;48.072;9.884;2022-08-01T04:14:24;13.80;99.90
20041;DHT22;10181;48.072;9.884;2022-08-01T04:16:49;13.80;99.90
20041;DHT22;10181;48.072;9.884;2022-08-01T04:19:15;13.70;99.90
20041;DHT22;10181;48.072;9.884;2022-08-01T04:21:41;13.70;99.90
20041;DHT22;10181;48.072;9.884;2022-08-01T04:24:12;13.70;99.90
20041;DHT22;10181;48.072;9.884;2022-08-01T04:26:39;13.70;99.90
20041;DHT22;10181;48.072;9.884;2022-08-01T04:29:07;13.60;99.90
20041;DHT22;10181;48.072;9.884;2022-08-01T04:31:35;13.60;99.90
20041;DHT22;10181;48.072;9.884;2022-08-01T04:34:04;13.60;99.90
20041;DHT22;10181;48.072;9.884;2022-08-01T04:36:33;13.60;99.90
20041;DHT22;10181;48.072;9.884;2022-08-01T04:39:00;13.60;99.90
20041;DHT22;10181;48.072;9.884;2022-08-01T04:41:26;13.60;99.90
20041;DHT22;10181;48.072;9.884;2022-08-01T04:43:53;13.60;99.90
20041;DHT22;10181;48.072;9.884;2022-08-01T04:46:20;13.60;99.90
20041;DHT22;10181;48.072;9.884;2022-08-01T04:48:47;13.60;99.90
20041;DHT22;10181;48.072;9.884;2022-08-01T04:51:14;13.70;99.90
20041;DHT22;10181;48.072;9.884;2022-08-01T04:53:41;13.70;99.90
20041;DHT22;10181;48.072;9.884;2022-08-01T04:56:07;13.80;99.90
20041;DHT22;10181;48.072;9.884;2022-08-01T04:58:32;13.80;99.90
20041;DHT22;10181;48.072;9.884;2022-08-01T05:00:58;13.90;99.90
20041;DHT22;10181;48.072;9.884;2022-08-01T05:03:24;14.10;99.90
20041;DHT22;10181;48.072;9.884;2022-08-01T05:05:49;14.20;99.90
20041;DHT22;10181;48.072;9.884;2022-08-01T05:08:15;14.30;99.90
20041;DHT22;10181;48.072;9.884;2022-08-01T05:10:41;14.40;99.90
20041;DHT22;10181;48.072;9.884;2022-08-01T05:13:08;14.50;99.90
20041;DHT22;10181;48.072;9.884;2022-08-01T05:15:35;14.70;99.90
20041;DHT22;10181;48.072;9.884;2022-08-01T05:18:02;14.80;99.90
20041;DHT22;10181;48.072;9.884;2022-08-01T05:20:27;14.90;99.90
20041;DHT22;10181;48.072;9.884;2022-08-01T05:22:53;15.00;99.90
20041;DHT22;10181;48.072;9.884;2022-08-01T05:25:19;15.20;99.90
20041;DHT22;10181;48.072;9.884;2022-08-01T05:27:44;15.30;99.90
20041;DHT22;10181;48.072;9.884;2022-08-01T05:30:10;15.40;99.90
20041;DHT22;10181;48.072;9.884;2022-08-01T05:32:36;15.60;99.90
20041;DHT22;10181;48.072;9.884;2022-08-01T05:35:02;15.80;99.90
20041;DHT22;10181;48.072;9.884;2022-08-01T05:37:28;16.00;99.90
20041;DHT22;10181;48.072;9.884;2022-08-01T05:39:54;16.20;99.90
20041;DHT22;10181;48.072;9.884;2022-08-01T05:42:20;16.40;99.90
20041;DHT22;10181;48.072;9.884;2022-08-01T05:44:45;16.70;99.90
20041;DHT22;10181;48.072;9.884;2022-08-01T05:47:11;17.00;99.90
20041;DHT22;10181;48.072;9.884;2022-08-01T05:49:36;17.40;99.90
20041;DHT22;10181;48.072;9.884;2022-08-01T05:52:02;17.70;99.90
20041;DHT22;10181;48.072;9.884;2022-08-01T05:54:28;18.00;99.90
20041;DHT22;10181;48.072;9.884;2022-08-01T05:56:54;18.20;99.90
20041;DHT22;10181;48.072;9.884;2022-08-01T05:59:25;18.50;99.90
20041;DHT22;10181;48.072;9.884;2022-08-01T06:01:50;18.70;99.90
20041;DHT22;10181;48.072;9.884;2022-08-01T06:04:16;18.90;99.90
20041;DHT22;10181;48.072;9.884;2022-08-01T06:06:42;19.00;99.90
20041;DHT22;10181;48.072;9.884;2022-08-01T06:09:07;19.20;99.90
20041;DHT22;10181;48.072;9.884;2022-08-01T06:11:33;19.30;99.90
20041;DHT22;10181;48.072;9.884;2022-08-01T06:13:59;19.40;99.90
20041;DHT22;10181;48.072;9.884;2022-08-01T06:16:24;19.50;99.90
20041;DHT22;10181;48.072;9.884;2022-08-01T06:18:50;19.70;99.90
20041;DHT22;10181;48.072;9.884;2022-08-01T06:21:15;19.70;99.90
20041;DHT22;10181;48.072;9.884;2022-08-01T06:23:41;19.80;99.90
20041;DHT22;10181;48.072;9.884;2022-08-01T06:26:08;19.80;99.90
20041;DHT22;10181;48.072;9.884;2022-08-01T06:28:34;19.90;99.90
20041;DHT22;10181;48.072;9.884;2022-08-01T06:30:59;19.90;99.90
20041;DHT22;10181;48.072;9.884;2022-08-01T06:33:26;20.00;99.90
20041;DHT22;10181;48.072;9.884;2022-08-01T06:35:52;20.00;99.90
20041;DHT22;10181;48.072;9.884;2022-08-01T06:38:17;20.10;99.90
20041;DHT22;10181;48.072;9.884;2022-08-01T06:40:43;20.20;99.90
20041;DHT22;10181;48.072;9.884;2022-08-01T06:43:09;20.20;99.90
20041;DHT22;10181;48.072;9.884;2022-08-01T06:45:37;20.20;99.90
20041;DHT22;10181;48.072;9.884;2022-08-01T06:48:03;20.20;99.90
20041;DHT22;10181;48.072;9.884;2022-08-01T06:50:28;20.30;99.90
20041;DHT22;10181;48.072;9.884;2022-08-01T06:52:54;20.30;99.90
20041;DHT22;10181;48.072;9.884;2022-08-01T06:55:20;20.30;99.90
20041;DHT22;10181;48.072;9.884;2022-08-01T06:57:49;20.40;99.90
20041;DHT22;10181;48.072;9.884;2022-08-01T07:00:16;20.40;99.90
20041;DHT22;10181;48.072;9.884;2022-08-01T07:02:44;20.40;99.90
20041;DHT22;10181;48.072;9.884;2022-08-01T07:05:11;20.40;99.90
20041;DHT22;10181;48.072;9.884;2022-08-01T07:07:37;20.40;99.90
20041;DHT22;10181;48.072;9.884;2022-08-01T07:10:03;20.50;99.90
20041;DHT22;10181;48.072;9.884;2022-08-01T07:12:28;20.60;99.90
20041;DHT22;10181;48.072;9.884;2022-08-01T07:14:54;20.70;99.90
20041;DHT22;10181;48.072;9.884;2022-08-01T07:17:19;20.70;99.90
20041;DHT22;10181;48.072;9.884;2022-08-01T07:19:46;20.80;99.90
20041;DHT22;10181;48.072;9.884;2022-08-01T07:22:12;20.80;99.90
20041;DHT22;10181;48.072;9.884;2022-08-01T07:24:39;21.00;99.90
20041;DHT22;10181;48.072;9.884;2022-08-01T07:27:05;21.00;99.90
20041;DHT22;10181;48.072;9.884;2022-08-01T07:29:31;21.00;99.90
20041;DHT22;10181;48.072;9.884;2022-08-01T07:31:58;21.00;99.90
20041;DHT22;10181;48.072;9.884;2022-08-01T07:34:25;21.10;99.90
20041;DHT22;10181;48.072;9.884;2022-08-01T07:36:51;21.20;99.90
20041;DHT22;10181;48.072;9.884;2022-08-01T07:39:17;21.20;99.90
20041;DHT22;10181;48.072;9.884;2022-08-01T07:41:42;21.20;99.90
20041;DHT22;10181;48.072;9.884;2022-08-01T07:44:08;21.30;99.90
20041;DHT22;10181;48.072;9.884;2022-08-01T07:46:34;21.40;99.90
20041;DHT22;10181;48.072;9.884;2022-08-01T07:48:59;21.40;99.90
20041;DHT22;10181;48.072;9.884;2022-08-01T07:51:25;21.60;99.90
20041;DHT22;10181;48.072;9.884;2022-08-01T07:53:51;21.60;99.90
20041;DHT22;10181;48.072;9.884;2022-08-01T07:56:16;21.60;99.90
20041;DHT22;10181;48.072;9.884;2022-08-01T07:58:42;21.70;99.90
20041;DHT22;10181;48.072;9.884;2022-08-01T08:01:08;21.70;99.90
20041;DHT22;10181;48.072;9.884;2022-08-01T08:03:33;21.60;99.90
20041;DHT22;10181;48.072;9.884;2022-08-01T08:05:59;21.60;99.90
20041;DHT22;10181;48.072;9.884;2022-08-01T08:08:25;21.70;99.90
20041;DHT22;10181;48.072;9.884;2022-08-01T08:10:50;21.80;99.90
20041;DHT22;10181;48.072;9.884;2022-08-01T08:13:16;21.80;99.90
20041;DHT22;10181;48.072;9.884;2022-08-01T08:15:42;21.90;99.90
20041;DHT22;10181;48.072;9.884;2022-08-01T08:18:07;21.90;99.90
20041;DHT22;10181;48.072;9.884;2022-08-01T08:20:33;21.90;99.90
20041;DHT22;10181;48.072;9.884;2022-08-01T08:22:59;22.00;99.90
20041;DHT22;10181;48.072;9.884;2022-08-01T08:25:25;22.00;99.90
20041;DHT22;10181;48.072;9.884;2022-08-01T08:27:51;22.10;99.90
20041;DHT22;10181;48.072;9.884;2022-08-01T08:30:17;22.10;99.90
20041;DHT22;10181;48.072;9.884;2022-08-01T08:32:43;22.20;99.90
20041;DHT22;10181;48.072;9.884;2022-08-01T08:35:09;22.30;99.90
20041;DHT22;10181;48.072;9.884;2022-08-01T08:37:36;22.40;99.90
20041;DHT22;10181;48.072;9.884;2022-08-01T08:40:03;22.50;99.90
20041;DHT22;10181;48.072;9.884;2022-08-01T08:42:29;22.60;99.90
20041;DHT22;10181;48.072;9.884;2022-08-01T08:44:55;22.60;99.90
20041;DHT22;10181;48.072;9.884;2022-08-01T08:47:22;22.60;99.90
20041;DHT22;10181;48.072;9.884;2022-08-01T08:49:51;22.70;99.90
20041;DHT22;10181;48.072;9.884;2022-08-01T08:52:20;22.90;99.90
20041;DHT22;10181;48.072;9.884;2022-08-01T08:54:47;23.00;99.90
20041;DHT22;10181;48.072;9.884;2022-08-01T08:57:14;23.00;99.90
20041;DHT22;10181;48.072;9.884;2022-08-01T08:59:40;23.10;99.90
20041;DHT22;10181;48.072;9.884;2022-08-01T09:02:09;23.10;99.90
20041;DHT22;10181;48.072;9.884;2022-08-01T09:04:36;23.10;99.90
20041;DHT22;10181;48.072;9.884;2022-08-01T09:07:04;23.10;99.90
20041;DHT22;10181;48.072;9.884;2022-08-01T09:09:30;23.00;99.90
20041;DHT22;10181;48.072;9.884;2022-08-01T09:11:57;23.10;99.90
20041;DHT22;10181;48.072;9.884;2022-08-01T09:14:23;23.10;99.90
20041;DHT22;10181;48.072;9.884;2022-08-01T09:17:08;23.10;99.90
20041;DHT22;10181;48.072;9.884;2022-08-01T09:19:43;23.10;99.90
20041;DHT22;10181;48.072;9.884;2022-08-01T09:22:12;23.30;99.90
20041;DHT22;10181;48.072;9.884;2022-08-01T09:24:38;23.40;99.90
20041;DHT22;10181;48.072;9.884;2022-08-01T09:27:16;23.40;99.90
20041;DHT22;10181;48.072;9.884;2022-08-01T09:29:42;23.30;99.90
20041;DHT22;10181;48.072;9.884;2022-08-01T09:32:10;23.40;99.90
20041;DHT22;10181;48.072;9.884;2022-08-01T09:34:36;23.40;99.90
20041;DHT22;10181;48.072;9.884;2022-08-01T09:37:03;23.40;99.90
20041;DHT22;10181;48.072;9.884;2022-08-01T09:39:31;23.40;99.90
20041;DHT22;10181;48.072;9.884;2022-08-01T09:41:59;23.40;99.90
20041;DHT22;10181;48.072;9.884;2022-08-01T09:44:42;23.40;99.90
20041;DHT22;10181;48.072;9.884;2022-08-01T09:47:08;23.40;99.90
20041;DHT22;10181;48.072;9.884;2022-08-01T09:49:36;23.40;99.90
20041;DHT22;10181;48.072;9.884;2022-08-01T09:52:15;23.50;99.90
20041;DHT22;10181;48.072;9.884;2022-08-01T09:54:42;23.50;99.90
20041;DHT22;10181;48.072;9.884;2022-08-01T09:57:17;23.50;99.90
20041;DHT22;10181;48.072;9.884;2022-08-01T09:59:48;23.60;99.90
20041;DHT22;10181;48.072;9.884;2022-08-01T10:02:36;23.70;99.90
20041;DHT22;10181;48.072;9.884;2022-08-01T10:05:07;23.80;99.90
20041;DHT22;10181;48.072;9.884;2022-08-01T10:07:34;23.90;99.90
20041;DHT22;10181;48.072;9.884;2022-08-01T10:10:14;23.90;99.90
20041;DHT22;10181;48.072;9.884;2022-08-01T10:12:41;24.10;99.90
20041;DHT22;10181;48.072;9.884;2022-08-01T10:15:08;24.10;99.90
20041;DHT22;10181;48.072;9.884;2022-08-01T10:17:34;24.20;99.90
20041;DHT22;10181;48.072;9.884;2022-08-01T10:20:03;24.30;99.90
20041;DHT22;10181;48.072;9.884;2022-08-01T10:22:30;24.30;99.90
20041;DHT22;10181;48.072;9.884;2022-08-01T10:24:57;24.40;99.90
20041;DHT22;10181;48.072;9.884;2022-08-01T10:27:27;24.40;99.90
20041;DHT22;10181;48.072;9.884;2022-08-01T10:30:00;24.50;99.90
20041;DHT22;10181;48.072;9.884;2022-08-01T10:32:30;24.60;99.90
20041;DHT22;10181;48.072;9.884;2022-08-01T10:34:56;24.60;99.90
20041;DHT22;10181;48.072;9.884;2022-08-01T10:37:22;24.50;99.90
20041;DHT22;10181;48.072;9.884;2022-08-01T10:39:50;24.70;99.90
20041;DHT22;10181;48.072;9.884;2022-08-01T10:42:18;24.80;99.90
20041;DHT22;10181;48.072;9.884;2022-08-01T10:44:44;25.00;99.90
20041;DHT22;10181;48.072;9.884;2022-08-01T10:47:17;25.10;99.90
20041;DHT22;10181;48.072;9.884;2022-08-01T10:49:48;25.10;99.90
20041;DHT22;10181;48.072;9.884;2022-08-01T10:52:17;25.20;99.90
20041;DHT22;10181;48.072;9.884;2022-08-01T10:54:43;25.30;99.90
20041;DHT22;10181;48.072;9.884;2022-08-01T10:57:09;25.30;99.90
20041;DHT22;10181;48.072;9.884;2022-08-01T10:59:36;25.50;99.90
20041;DHT22;10181;48.072;9.884;2022-08-01T11:02:29;25.60;99.90
20041;DHT22;10181;48.072;9.884;2022-08-01T11:04:59;25.60;99.90
20041;DHT22;10181;48.072;9.884;2022-08-01T11:10:18;25.40;99.00
20041;DHT22;10181;48.072;9.884;2022-08-01T11:12:45;25.50;99.00
20041;DHT22;10181;48.072;9.884;2022-08-01T11:20:17;25.30;99.90
20041;DHT22;10181;48.072;9.884;2022-08-01T11:28:18;25.80;98.60
20041;DHT22;10181;48.072;9.884;2022-08-01T11:38:40;25.80;97.00
20041;DHT22;10181;48.072;9.884;2022-08-01T11:44:08;25.70;99.60
20041;DHT22;10181;48.072;9.884;2022-08-01T11:46:57;25.90;98.70
20041;DHT22;10181;48.072;9.884;2022-08-01T11:57:16;26.40;97.00
20041;DHT22;10181;48.072;9.884;2022-08-01T11:59:47;26.50;95.70
20041;DHT22;10181;48.072;9.884;2022-08-01T12:02:22;26.50;95.90
20041;DHT22;10181;48.072;9.884;2022-08-01T12:04:56;26.60;96.50
20041;DHT22;10181;48.072;9.884;2022-08-01T12:07:24;26.80;95.40
20041;DHT22;10181;48.072;9.884;2022-08-01T12:12:26;26.70;93.40
20041;DHT22;10181;48.072;9.884;2022-08-01T12:14:58;26.50;92.60
20041;DHT22;10181;48.072;9.884;2022-08-01T12:17:38;26.50;94.10
20041;DHT22;10181;48.072;9.884;2022-08-01T12:20:06;26.50;94.70
20041;DHT22;10181;48.072;9.884;2022-08-01T12:22:33;26.50;94.70
20041;DHT22;10181;48.072;9.884;2022-08-01T12:25:13;26.50;95.20
20041;DHT22;10181;48.072;9.884;2022-08-01T12:27:41;26.50;93.20
20041;DHT22;10181;48.072;9.884;2022-08-01T12:30:09;26.30;94.20
20041;DHT22;10181;48.072;9.884;2022-08-01T12:32:37;26.30;95.80
20041;DHT22;10181;48.072;9.884;2022-08-01T12:35:05;26.40;95.00
20041;DHT22;10181;48.072;9.884;2022-08-01T12:37:38;26.30;94.40
20041;DHT22;10181;48.072;9.884;2022-08-01T12:40:27;26.30;94.30
20041;DHT22;10181;48.072;9.884;2022-08-01T12:42:56;26.40;92.90
20041;DHT22;10181;48.072;9.884;2022-08-01T12:45:25;26.30;95.70
20041;DHT22;10181;48.072;9.884;2022-08-01T12:47:55;26.20;93.50
20041;DHT22;10181;48.072;9.884;2022-08-01T12:50:25;26.00;93.20
20041;DHT22;10181;48.072;9.884;2022-08-01T12:52:51;26.00;94.50
20041;DHT22;10181;48.072;9.884;2022-08-01T12:55:19;26.20;93.40
20041;DHT22;10181;48.072;9.884;2022-08-01T12:57:48;26.40;92.20
20041;DHT22;10181;48.072;9.884;2022-08-01T13:00:24;26.50;91.90
20041;DHT22;10181;48.072;9.884;2022-08-01T13:03:00;26.50;91.80
20041;DHT22;10181;48.072;9.884;2022-08-01T13:05:26;26.50;91.40
20041;DHT22;10181;48.072;9.884;2022-08-01T13:07:52;26.40;92.00
20041;DHT22;10181;48.072;9.884;2022-08-01T13:10:30;26.20;91.80
20041;DHT22;10181;48.072;9.884;2022-08-01T13:12:57;26.10;92.20
20041;DHT22;10181;48.072;9.884;2022-08-01T13:15:30;26.00;92.90
20041;DHT22;10181;48.072;9.884;2022-08-01T13:17:58;25.90;93.20
20041;DHT22;10181;48.072;9.884;2022-08-01T13:20:29;25.80;91.50
20041;DHT22;10181;48.072;9.884;2022-08-01T13:22:55;25.70;91.70
20041;DHT22;10181;48.072;9.884;2022-08-01T13:25:49;25.60;92.60
20041;DHT22;10181;48.072;9.884;2022-08-01T13:28:21;25.40;91.90
20041;DHT22;10181;48.072;9.884;2022-08-01T13:31:02;25.40;94.50
20041;DHT22;10181;48.072;9.884;2022-08-01T13:33:44;25.30;94.40
20041;DHT22;10181;48.072;9.884;2022-08-01T13:36:10;25.10;94.80
20041;DHT22;10181;48.072;9.884;2022-08-01T13:38:37;25.10;95.40
20041;DHT22;10181;48.072;9.884;2022-08-01T13:41:21;25.00;96.60
20041;DHT22;10181;48.072;9.884;2022-08-01T13:43:47;25.00;97.40
20041;DHT22;10181;48.072;9.884;2022-08-01T13:46:13;24.60;97.80
20041;DHT22;10181;48.072;9.884;2022-08-01T13:48:38;24.30;99.00
20041;DHT22;10181;48.072;9.884;2022-08-01T13:51:04;24.10;99.90
20041;DHT22;10181;48.072;9.884;2022-08-01T13:53:30;24.00;99.90
20041;DHT22;10181;48.072;9.884;2022-08-01T13:55:55;23.80;99.90
20041;DHT22;10181;48.072;9.884;2022-08-01T13:58:22;23.60;99.90
20041;DHT22;10181;48.072;9.884;2022-08-01T14:00:47;23.30;99.90
20041;DHT22;10181;48.072;9.884;2022-08-01T14:03:13;23.00;99.90
20041;DHT22;10181;48.072;9.884;2022-08-01T14:05:39;23.00;99.90
20041;DHT22;10181;48.072;9.884;2022-08-01T14:08:05;23.00;99.90
20041;DHT22;10181;48.072;9.884;2022-08-01T14:10:31;23.20;99.90
20041;DHT22;10181;48.072;9.884;2022-08-01T14:12:58;23.20;99.90
20041;DHT22;10181;48.072;9.884;2022-08-01T14:15:24;23.30;99.90
20041;DHT22;10181;48.072;9.884;2022-08-01T14:17:50;23.20;99.90
20041;DHT22;10181;48.072;9.884;2022-08-01T14:20:16;23.20;99.90
20041;DHT22;10181;48.072;9.884;2022-08-01T14:22:45;23.10;99.90
20041;DHT22;10181;48.072;9.884;2022-08-01T14:25:11;22.90;99.90
20041;DHT22;10181;48.072;9.884;2022-08-01T14:27:36;22.80;99.90
20041;DHT22;10181;48.072;9.884;2022-08-01T14:30:06;22.50;99.90
20041;DHT22;10181;48.072;9.884;2022-08-01T14:32:32;22.30;99.90
20041;DHT22;10181;48.072;9.884;2022-08-01T14:34:59;22.30;99.90
20041;DHT22;10181;48.072;9.884;2022-08-01T14:37:25;22.10;99.90
20041;DHT22;10181;48.072;9.884;2022-08-01T14:39:50;22.00;99.90
20041;DHT22;10181;48.072;9.884;2022-08-01T14:42:16;22.00;99.90
20041;DHT22;10181;48.072;9.884;2022-08-01T14:44:42;21.90;99.90
20041;DHT22;10181;48.072;9.884;2022-08-01T14:47:07;21.80;99.90
20041;DHT22;10181;48.072;9.884;2022-08-01T14:49:33;21.70;99.90
20041;DHT22;10181;48.072;9.884;2022-08-01T14:51:59;21.70;99.90
20041;DHT22;10181;48.072;9.884;2022-08-01T14:54:24;21.60;99.90
20041;DHT22;10181;48.072;9.884;2022-08-01T14:56:50;21.60;99.90
20041;DHT22;10181;48.072;9.884;2022-08-01T14:59:18;21.50;99.90
20041;DHT22;10181;48.072;9.884;2022-08-01T15:01:44;21.40;99.90
20041;DHT22;10181;48.072;9.884;2022-08-01T15:04:10;21.30;99.90
20041;DHT22;10181;48.072;9.884;2022-08-01T15:06:36;21.10;99.90
20041;DHT22;10181;48.072;9.884;2022-08-01T15:09:02;21.10;99.90
20041;DHT22;10181;48.072;9.884;2022-08-01T15:11:28;21.10;99.90
20041;DHT22;10181;48.072;9.884;2022-08-01T15:13:53;21.20;99.90
20041;DHT22;10181;48.072;9.884;2022-08-01T15:16:45;21.20;99.90
20041;DHT22;10181;48.072;9.884;2022-08-01T15:19:10;21.20;99.90
20041;DHT22;10181;48.072;9.884;2022-08-01T15:21:36;21.10;99.90
20041;DHT22;10181;48.072;9.884;2022-08-01T15:24:02;20.90;99.90
20041;DHT22;10181;48.072;9.884;2022-08-01T15:26:27;20.80;99.90
20041;DHT22;10181;48.072;9.884;2022-08-01T15:28:55;20.70;99.90
20041;DHT22;10181;48.072;9.884;2022-08-01T15:31:20;20.80;99.90
20041;DHT22;10181;48.072;9.884;2022-08-01T15:33:46;21.00;99.90
20041;DHT22;10181;48.072;9.884;2022-08-01T15:36:12;21.10;99.90
20041;DHT22;10181;48.072;9.884;2022-08-01T15:38:37;21.30;99.90
20041;DHT22;10181;48.072;9.884;2022-08-01T15:41:03;21.40;99.90
20041;DHT22;10181;48.072;9.884;2022-08-01T15:43:29;21.50;99.90
20041;DHT22;10181;48.072;9.884;2022-08-01T15:45:54;21.60;99.90
20041;DHT22;10181;48.072;9.884;2022-08-01T15:48:20;21.60;99.90
20041;DHT22;10181;48.072;9.884;2022-08-01T15:50:45;21.60;99.90
20041;DHT22;10181;48.072;9.884;2022-08-01T15:53:13;21.60;99.90
20041;DHT22;10181;48.072;9.884;2022-08-01T15:55:39;21.70;99.90
20041;DHT22;10181;48.072;9.884;2022-08-01T15:58:05;21.70;99.90
20041;DHT22;10181;48.072;9.884;2022-08-01T16:00:31;21.70;99.90
20041;DHT22;10181;48.072;9.884;2022-08-01T16:02:56;21.70;99.90
20041;DHT22;10181;48.072;9.884;2022-08-01T16:05:22;21.70;99.90
20041;DHT22;10181;48.072;9.884;2022-08-01T16:07:48;21.70;99.90
20041;DHT22;10181;48.072;9.884;2022-08-01T16:10:14;21.70;99.90
20041;DHT22;10181;48.072;9.884;2022-08-01T16:15:08;21.70;99.90
20041;DHT22;10181;48.072;9.884;2022-08-01T16:17:34;21.70;99.90
20041;DHT22;10181;48.072;9.884;2022-08-01T16:19:59;21.60;99.90